Terminal Aerodrome Forecast
Issued by NWS

Home | Current Version | Previous Version | Text Only | Print | Product List | Glossary On
Versions: 1 2 3 4 5 6 7 8 9 10 11 12 13 14 15 16 17 18 19 20 21 22 23 24 25 26 27 28 29
000
FTUS44 KMAF 230800 AAA
TAFCNM
TAF AMD
KCNM 230817Z 2308/2406 15011KT P6SM SCT020 OVC035
      TEMPO 2310/2312 4SM TSRA OVC025CB
     FM231200 15008KT P6SM OVC040
      TEMPO 2312/2315 4SM TSRA OVC020CB
     FM231800 17012KT P6SM BKN030 OVC100=

USA.gov is the U.S. government's official web portal to all federal, state and local government web resources and services.